Main page
METAR-TAF:

METAR-TAF

Airports :

Pointe-à-Pitre International Airport

Pointe-à-Pitre, Guadeloupe

latitude: 16-16N, longitude: 061-31W, elevation: 11 m

Current weather observation

The report was made 19 minutes ago, at 12:00 UTC
Wind 10 kt from the East, varying between East/Northeast and Southeast
Temperature 29°C
Humidity 70%
Pressure 1017 hPa
Visibility 10 km or more
Scattered clouds at a height of 2400 ft
Broken clouds at a height of 5600 ft

METAR: TFFR 141200Z AUTO 10010KT 060V130 9999 SCT024 BKN056 29/23 Q1017 NOSIG

Time: 08:19 (12:19 UTC)

Forecast

The report was made 1 hour and 19 minutes ago, at 11:00 UTC
Forecast valid from 14 at 12 UTC to 15 at 12 UTC
Wind 10 kt from the East/Southeast
Visibility 10 km or more
Broken clouds at a height of 3000 ft
Temporary
from 14 at 14 UTC to 14 at 22 UTC
Wind 15 kt from the East/Southeast with gusts up to 25 kt

TAF: TFFR 141100Z 1412/1512 11010KT 9999 BKN030 TEMPO 1414/1422 12015G25KT

Weather observations and forecasts of more than 4000 airports (METAR and TAF reports).

The available stations are represented by yellow and red dots on the map.

Hover mouse over dot to see the name of the station.

Then click to see weather observations and forecasts.

To change the map : click on the green buttons with a black cross to zoom in, on the green button with a dash to zoom out, or on the green arrows for adjacent maps.


METAR-TAF: